Flight Track Log - Related Links

Times and Time Zones

All times are in EDT time to prevent confusion due to time zone crossing. See the PDT4155 flight status page for this flight to view local times or setup timezone preferences in your user account.

Time Position Orientation Groundspeed Altitude Reporting Facility
EDT Latitude Longitude Course Direction KTS MPH feet Rate Location/Type
Thu 08:18:00 AM 41.9191 -75.8851 159° South  Level Estimated
Thu 08:19:00 AM 41.8602 -75.8731 171° South  Level FlightAware Approximate
Thu 08:20:00 AM 41.8023 -75.8541 153° Southeast  Level Estimated
Thu 08:21:00 AM 41.7445 -75.8352 161° South  Level Estimated
Thu 08:22:00 AM 41.6866 -75.8167 167° South  Level FlightAware Approximate
Thu 08:23:00 AM 41.6286 -75.7982 167° South  Level FlightAware Approximate
Thu 08:24:00 AM 41.5708 -75.7793 162° South  Level Estimated
Thu 08:25:00 AM 41.5135 -75.7578 164° South  Level FlightAware Approximate
Thu 08:26:00 AM 41.4561 -75.7363 164° South  Level FlightAware Approximate
Thu 08:27:00 AM 41.3988 -75.7148 164° South  Level FlightAware Approximate
Thu 08:28:00 AM 41.3414 -75.6934 164° South  Level FlightAware Approximate
Thu 08:29:00 AM 41.2835 -75.6752 159° South  Level Estimated
Thu 08:30:00 AM 41.2255 -75.6570 163° South  Level Estimated
Thu 08:31:00 AM 41.1686 -75.6337 163° South  Level FlightAware Approximate
Thu 08:32:00 AM 41.1117 -75.6104 163° South  Level FlightAware Approximate
Thu 08:33:00 AM 41.0548 -75.5872 163° South  Level FlightAware Approximate
Thu 08:34:00 AM 40.9967 -75.5698 190° South  Level Estimated
Thu 08:35:00 AM 40.9375 -75.5615 174° South  Level FlightAware Approximate
Thu 08:36:00 AM 40.8783 -75.5531 174° South  Level FlightAware Approximate
Thu 08:37:00 AM 40.8190 -75.5447 174° South  Level FlightAware Approximate
Thu 08:38:00 AM 40.7612 -75.5259 187° South  Level Estimated
Thu 08:39:00 AM 40.7017 -75.5244 179° South  Level FlightAware Approximate
Thu 08:40:00 AM 40.6441 -75.5045 190° South  Level Estimated
Thu 08:41:00 AM 40.5848 -75.5114 185° South  Level FlightAware Approximate
Thu 08:41:29 AM 40.6000 -75.5833 143° Southeast 227 261 7,900  Level Philadelphia TRACON
Thu 08:42:00 AM 40.5276 -75.4894 180° South  Level Estimated
Thu 08:42:05 AM 40.5667 -75.5833 180° South 227 261 7,700  Level Philadelphia TRACON
Thu 08:43:00 AM 40.4704 -75.4675 143° Southeast  Level Estimated
Thu 08:43:05 AM 40.5000 -75.5667 169° South 237 273 7,300  Level Philadelphia TRACON
Thu 08:44:00 AM 40.4132 -75.4457 143° Southeast  Level Estimated
Thu 08:44:11 AM 40.4333 -75.5333 159° South 232 267 6,900  Level Philadelphia TRACON
Thu 08:45:00 AM 40.3560 -75.4239 143° Southeast  Level Estimated
Thu 08:45:05 AM 40.4000 -75.5000 143° Southeast 215 247 6,900  Level Philadelphia TRACON
Thu 08:46:00 AM 40.2989 -75.4021 143° Southeast  Level Estimated
Thu 08:46:05 AM 40.3333 -75.4667 159° South 225 259 6,900  Level Philadelphia TRACON
Thu 08:47:05 AM 40.2833 -75.4333 153° Southeast 233 268 6,200 -650 Descending Philadelphia TRACON
Thu 08:48:05 AM 40.2167 -75.4000 159° South 234 269 5,600 -650 Descending Philadelphia TRACON
Thu 08:49:05 AM 40.1500 -75.3667 159° South 234 269 4,900 -744 Descending Philadelphia TRACON
Thu 08:50:06 AM 40.1000 -75.3500 166° South 230 265 4,100 -783 Descending Philadelphia TRACON
Thu 08:51:00 AM 40.0500 -75.3167 153° Southeast 191 220 3,400 -842 Descending Philadelphia TRACON
Thu 08:52:00 AM 40.0000 -75.3000 166° South 180 207 2,500 -950 Descending Philadelphia TRACON
Thu 08:53:00 AM 39.9667 -75.2667 143° Southeast 156 180 1,500 -850 Descending Philadelphia TRACON
Thu 08:54:00 AM 39.9333 -75.2500 159° South 131 151 800 -700 Descending Philadelphia TRACON
Thu 08:55:00 AM 39.9000 -75.2333 159° South 115 132 100 -700 Descending Philadelphia TRACON

Login

Don't have an account? Register now (free) for customized features, flight alerts, and more!